createdAt,value
2018-01-16T00:00:14.227Z,22.37
2018-01-16T00:02:41.118Z,23.48
2018-01-16T00:05:07.691Z,18.92
2018-01-16T00:07:33.906Z,22.80
2018-01-16T00:10:01.364Z,19.77
2018-01-16T00:12:28.676Z,19.12
2018-01-16T00:14:54.891Z,23.15
2018-01-16T00:17:21.454Z,23.98
2018-01-16T00:19:48.500Z,17.75
2018-01-16T00:22:27.429Z,16.27
2018-01-16T00:24:54.718Z,19.00
2018-01-16T00:27:22.280Z,17.23
2018-01-16T00:29:48.913Z,15.38
2018-01-16T00:32:15.823Z,16.83
2018-01-16T00:34:43.347Z,18.67
2018-01-16T00:37:09.538Z,21.87
2018-01-16T00:39:36.291Z,21.60
2018-01-16T00:42:03.032Z,20.67
2018-01-16T00:44:29.502Z,17.25
2018-01-16T00:46:55.730Z,21.45
2018-01-16T00:49:22.255Z,19.75
2018-01-16T00:51:49.689Z,23.02
2018-01-16T00:54:16.990Z,22.30
2018-01-16T00:56:44.544Z,21.87
2018-01-16T00:59:11.542Z,22.35
2018-01-16T01:01:37.977Z,21.75
2018-01-16T01:04:05.266Z,20.83
2018-01-16T01:06:32.875Z,23.65
2018-01-16T01:08:59.375Z,20.80
2018-01-16T01:11:26.360Z,25.35
2018-01-16T01:13:53.101Z,25.25
2018-01-16T01:16:19.510Z,21.87
2018-01-16T01:18:47.163Z,21.62
2018-01-16T01:21:13.429Z,23.48
2018-01-16T01:23:39.653Z,24.25
2018-01-16T01:26:06.537Z,22.87
2018-01-16T01:28:33.328Z,22.27
2018-01-16T01:31:00.070Z,20.90
2018-01-16T01:33:26.273Z,27.70
2018-01-16T01:35:53.404Z,19.27
2018-01-16T01:38:19.614Z,22.60
2018-01-16T01:40:45.992Z,24.92
2018-01-16T01:43:13.058Z,22.27
2018-01-16T01:45:39.495Z,23.92
2018-01-16T01:48:07.111Z,22.45
2018-01-16T01:50:34.663Z,24.95
2018-01-16T01:53:02.172Z,21.15
2018-01-16T01:55:28.358Z,21.73
2018-01-16T01:57:54.914Z,17.85
2018-01-16T02:00:21.870Z,19.37
2018-01-16T02:02:48.597Z,25.62
2018-01-16T02:05:16.419Z,20.08
2018-01-16T02:07:44.454Z,24.33
2018-01-16T02:10:10.633Z,22.48
2018-01-16T02:12:36.885Z,17.60
2018-01-16T02:15:03.079Z,21.10
2018-01-16T02:17:29.969Z,17.25
2018-01-16T02:19:56.407Z,24.95
2018-01-16T02:22:24.374Z,22.00
2018-01-16T02:24:51.641Z,21.95
2018-01-16T02:27:17.913Z,18.83
2018-01-16T02:29:44.536Z,24.85
2018-01-16T02:32:11.543Z,21.58
2018-01-16T02:34:38.460Z,20.33
2018-01-16T02:37:06.328Z,20.95
2018-01-16T02:39:33.843Z,23.38
2018-01-16T02:42:00.584Z,18.37
2018-01-16T02:44:26.896Z,25.30
2018-01-16T02:46:53.162Z,17.90
2018-01-16T02:49:19.518Z,20.30
2018-01-16T02:51:47.051Z,19.20
2018-01-16T02:54:13.252Z,20.12
2018-01-16T02:56:39.875Z,17.90
2018-01-16T02:59:06.652Z,23.23
2018-01-16T03:01:32.936Z,19.48
2018-01-16T03:03:59.153Z,23.65
2018-01-16T03:06:25.397Z,18.10
2018-01-16T03:08:51.627Z,22.17
2018-01-16T03:11:17.878Z,17.20
2018-01-16T03:13:44.629Z,19.20
2018-01-16T03:16:11.011Z,21.15
2018-01-16T03:18:39.262Z,23.80
2018-01-16T03:21:06.805Z,21.48
2018-01-16T03:23:33.376Z,17.95
2018-01-16T03:26:00.414Z,19.65
2018-01-16T03:28:28.481Z,20.00
2018-01-16T03:30:55.408Z,22.87
2018-01-16T03:33:21.635Z,22.50
2018-01-16T03:35:48.481Z,17.83
2018-01-16T03:38:14.703Z,20.15
2018-01-16T03:40:40.901Z,20.37
2018-01-16T03:43:07.657Z,19.83
2018-01-16T03:45:33.896Z,23.40
2018-01-16T03:48:00.207Z,20.05
2018-01-16T03:50:26.837Z,24.35
2018-01-16T03:52:53.842Z,24.55
2018-01-16T03:55:20.866Z,21.40
2018-01-16T03:57:47.560Z,17.92
2018-01-16T04:00:14.840Z,15.85
2018-01-16T04:02:41.575Z,20.42
2018-01-16T04:05:08.120Z,20.45
2018-01-16T04:07:35.700Z,15.88
2018-01-16T04:10:03.342Z,17.17
2018-01-16T04:12:29.561Z,15.95
2018-01-16T04:14:55.746Z,16.70
2018-01-16T04:17:22.360Z,14.52
2018-01-16T04:19:49.835Z,18.20
2018-01-16T04:22:17.078Z,14.40
2018-01-16T04:24:43.863Z,16.12
2018-01-16T04:27:10.586Z,13.32
2018-01-16T04:29:37.197Z,12.77
2018-01-16T04:32:04.846Z,13.20
2018-01-16T04:34:32.201Z,15.38
2018-01-16T04:36:59.905Z,12.05
2018-01-16T04:39:26.672Z,17.95
2018-01-16T04:41:52.908Z,19.85
2018-01-16T04:44:19.117Z,18.40
2018-01-16T04:46:45.361Z,22.23
2018-01-16T04:49:11.554Z,18.10
2018-01-16T04:51:38.145Z,18.15
2018-01-16T04:54:05.147Z,15.07
2018-01-16T04:56:31.365Z,18.67
2018-01-16T04:58:57.685Z,16.48
2018-01-16T05:01:24.248Z,16.87
2018-01-16T05:03:50.455Z,16.25
2018-01-16T05:06:16.652Z,14.40
2018-01-16T05:08:43.042Z,16.45
2018-01-16T05:11:10.152Z,19.95
2018-01-16T05:13:36.337Z,19.05
2018-01-16T05:16:03.832Z,15.65
2018-01-16T05:18:30.492Z,16.05
2018-01-16T05:20:58.484Z,17.40
2018-01-16T05:23:25.729Z,15.63
2018-01-16T05:25:51.958Z,15.20
2018-01-16T05:28:18.660Z,17.60
2018-01-16T05:30:45.006Z,17.23
2018-01-16T05:33:13.016Z,15.55
2018-01-16T05:35:40.448Z,13.62
2018-01-16T05:38:06.643Z,13.98
2018-01-16T05:40:32.870Z,13.93
2018-01-16T05:42:59.386Z,16.10
2018-01-16T05:45:26.954Z,20.40
2018-01-16T05:47:53.500Z,16.60
2018-01-16T05:50:20.591Z,18.10
2018-01-16T05:52:46.842Z,16.90
2018-01-16T05:55:14.296Z,16.23
2018-01-16T05:57:41.870Z,17.25
2018-01-16T06:00:08.881Z,15.40
2018-01-16T06:02:35.294Z,15.20
2018-01-16T06:05:02.725Z,16.73
2018-01-16T06:07:29.755Z,16.80
2018-01-16T06:09:56.647Z,16.70
2018-01-16T06:12:22.922Z,15.50
2018-01-16T06:14:50.624Z,17.50
2018-01-16T06:17:17.644Z,18.48
2018-01-16T06:19:43.884Z,17.05
2018-01-16T06:22:10.200Z,18.08
2018-01-16T06:24:36.607Z,18.52
2018-01-16T06:27:03.571Z,18.35
2018-01-16T06:29:30.226Z,17.92
2018-01-16T06:31:57.900Z,19.62
2018-01-16T06:34:24.129Z,17.00
2018-01-16T06:36:51.309Z,16.73
2018-01-16T06:39:17.693Z,17.80
2018-01-16T06:41:44.744Z,19.62
2018-01-16T06:44:10.929Z,15.48
2018-01-16T06:46:37.777Z,17.98
2018-01-16T06:49:04.654Z,16.37
2018-01-16T06:51:31.726Z,20.95
2018-01-16T06:53:58.726Z,17.33
2018-01-16T06:56:25.815Z,19.45
2018-01-16T06:58:52.036Z,13.93
2018-01-16T07:01:18.513Z,12.82
2018-01-16T07:03:46.025Z,13.23
2018-01-16T07:06:14.736Z,16.70
2018-01-16T07:08:40.939Z,19.27
2018-01-16T07:11:08.227Z,18.25
2018-01-16T07:13:34.411Z,20.42
2018-01-16T07:16:01.380Z,12.10
2018-01-16T07:18:27.652Z,20.65
2018-01-16T07:20:54.795Z,16.42
2018-01-16T07:23:22.439Z,16.00
2018-01-16T07:25:48.659Z,16.60
2018-01-16T07:28:15.587Z,14.90
2018-01-16T07:30:42.592Z,17.23
2018-01-16T07:33:08.858Z,18.02
2018-01-16T07:35:35.491Z,13.80
2018-01-16T07:38:02.684Z,17.15
2018-01-16T07:40:29.153Z,14.68
2018-01-16T07:42:56.236Z,14.65
2018-01-16T07:45:22.460Z,16.58
2018-01-16T07:47:48.656Z,19.33
2018-01-16T07:50:15.569Z,18.40
2018-01-16T07:52:43.216Z,13.48
2018-01-16T07:55:11.352Z,17.55
2018-01-16T07:57:38.216Z,15.10
2018-01-16T08:00:05.493Z,15.77
2018-01-16T08:02:33.028Z,19.30
2018-01-16T08:05:00.273Z,15.27
2018-01-16T08:07:27.023Z,21.30
2018-01-16T08:09:53.251Z,17.27
2018-01-16T08:12:20.147Z,13.93
2018-01-16T08:14:47.864Z,20.62
2018-01-16T08:17:15.108Z,18.90
2018-01-16T08:19:41.834Z,16.70
2018-01-16T08:22:08.275Z,14.93
2018-01-16T08:24:34.615Z,21.37
2018-01-16T08:27:01.823Z,24.83
2018-01-16T08:29:28.492Z,17.87
2018-01-16T08:31:56.230Z,16.48
2018-01-16T08:34:22.433Z,16.55
2018-01-16T08:36:48.691Z,17.17
2018-01-16T08:39:15.155Z,15.55
2018-01-16T08:41:42.593Z,10.55
2018-01-16T08:44:10.141Z,11.48
2018-01-16T08:46:36.664Z,10.20
2018-01-16T08:49:03.685Z,8.18
2018-01-16T08:51:31.325Z,8.98
2018-01-16T08:53:58.025Z,8.98
2018-01-16T08:56:25.681Z,10.43
2018-01-16T08:58:52.928Z,12.35
2018-01-16T09:01:19.962Z,11.00
2018-01-16T09:03:46.852Z,8.50
2018-01-16T09:06:13.620Z,10.63
2018-01-16T09:08:40.727Z,11.25
2018-01-16T09:11:07.722Z,13.15
2018-01-16T09:13:34.150Z,9.07
2018-01-16T09:16:01.840Z,10.13
2018-01-16T09:18:28.048Z,8.73
2018-01-16T09:20:54.873Z,10.88
2018-01-16T09:23:22.814Z,10.40
2018-01-16T09:25:49.015Z,10.13
2018-01-16T09:28:15.923Z,10.20
2018-01-16T09:30:43.410Z,6.78
2018-01-16T09:33:10.126Z,14.20
2018-01-16T09:35:37.750Z,11.02
2018-01-16T09:38:03.962Z,13.52
2018-01-16T09:40:30.346Z,10.98
2018-01-16T09:42:56.577Z,14.10
2018-01-16T09:45:22.896Z,14.73
2018-01-16T09:47:49.985Z,13.68
2018-01-16T09:50:16.780Z,13.85
2018-01-16T09:52:44.176Z,12.77
2018-01-16T09:55:11.845Z,9.35
2018-01-16T10:07:24.163Z,15.50
2018-01-16T10:09:51.666Z,16.45
2018-01-16T10:12:18.140Z,14.60
2018-01-16T10:14:45.448Z,11.20
2018-01-16T10:17:12.523Z,13.25
2018-01-16T10:19:38.998Z,9.50
2018-01-16T10:22:07.120Z,11.60
2018-01-16T10:24:34.088Z,11.63
2018-01-16T10:27:01.679Z,17.20
2018-01-16T10:29:28.093Z,13.55
2018-01-16T10:31:55.663Z,11.82
2018-01-16T10:34:22.801Z,24.23
2018-01-16T10:36:49.810Z,23.35
2018-01-16T10:39:17.651Z,23.25
2018-01-16T10:41:44.325Z,15.98
2018-01-16T10:44:11.692Z,20.12
2018-01-16T10:46:39.865Z,19.92
2018-01-16T10:49:06.082Z,23.00
2018-01-16T10:51:32.376Z,22.80
2018-01-16T10:53:58.604Z,17.20
2018-01-16T10:56:25.383Z,17.75
2018-01-16T10:58:51.686Z,17.20
2018-01-16T11:01:18.891Z,19.23
2018-01-16T11:03:45.909Z,21.00
2018-01-16T11:06:12.143Z,22.17
2018-01-16T11:08:38.370Z,21.45
2018-01-16T11:11:04.664Z,21.83
2018-01-16T11:13:31.675Z,22.98
2018-01-16T11:15:58.002Z,27.13
2018-01-16T11:18:24.271Z,26.48
2018-01-16T11:20:51.055Z,26.37
2018-01-16T11:23:17.307Z,27.02
2018-01-16T11:25:43.667Z,26.73
2018-01-16T11:28:09.925Z,37.17
2018-01-16T11:30:36.801Z,22.73
2018-01-16T11:33:04.890Z,28.25
2018-01-16T11:35:31.682Z,20.20
2018-01-16T11:37:57.944Z,22.75
2018-01-16T11:40:24.223Z,21.42
2018-01-16T11:42:51.481Z,22.40
2018-01-16T11:45:19.767Z,19.50
2018-01-16T11:47:45.999Z,30.67
2018-01-16T11:50:14.584Z,23.12
2018-01-16T11:52:41.331Z,20.40
2018-01-16T11:55:08.846Z,16.20
2018-01-16T11:57:35.924Z,12.75
2018-01-16T12:00:02.374Z,10.82
2018-01-16T12:02:29.965Z,11.45
2018-01-16T12:14:41.316Z,10.27
2018-01-16T12:17:07.579Z,15.68
2018-01-16T12:19:34.336Z,6.32
2018-01-16T12:22:01.310Z,6.78
2018-01-16T12:24:27.542Z,8.68
2018-01-16T12:26:53.986Z,5.80
2018-01-16T12:29:28.198Z,7.28
2018-01-16T12:31:55.265Z,5.03
2018-01-16T12:34:21.863Z,6.50
2018-01-16T12:36:49.329Z,2.80
2018-01-16T12:39:15.662Z,3.22
2018-01-16T12:41:42.532Z,6.40
2018-01-16T12:44:08.798Z,4.50
2018-01-16T12:46:35.029Z,3.30
2018-01-16T12:49:01.890Z,5.00
2018-01-16T12:51:29.175Z,6.05
2018-01-16T12:53:55.512Z,9.35
2018-01-16T12:56:21.791Z,14.73
2018-01-16T12:58:48.044Z,19.27
2018-01-16T13:01:14.851Z,17.83
2018-01-16T13:03:41.090Z,26.33
2018-01-16T13:06:08.129Z,8.07
2018-01-16T13:08:34.362Z,11.68
2018-01-16T13:11:00.695Z,14.73
2018-01-16T13:13:27.538Z,25.27
2018-01-16T13:15:54.610Z,31.27
2018-01-16T13:18:20.843Z,22.80
2018-01-16T13:20:47.072Z,22.27
2018-01-16T13:23:13.342Z,18.67
2018-01-16T13:25:39.571Z,18.90
2018-01-16T13:28:05.854Z,27.75
2018-01-16T13:30:32.077Z,26.98
2018-01-16T13:32:58.947Z,21.45
2018-01-16T13:35:25.188Z,22.48
2018-01-16T13:37:51.405Z,15.20
2018-01-16T13:40:19.899Z,16.10
2018-01-16T13:42:47.115Z,12.30
2018-01-16T13:45:14.186Z,20.70
2018-01-16T13:47:41.350Z,26.58
2018-01-16T13:50:07.962Z,22.75
2018-01-16T13:52:35.543Z,20.98
2018-01-16T13:55:03.276Z,19.12
2018-01-16T13:57:30.044Z,15.88
2018-01-16T13:59:56.440Z,19.23
2018-01-16T14:02:23.176Z,17.75
2018-01-16T14:04:50.382Z,19.77
2018-01-16T14:07:18.563Z,14.75
2018-01-16T14:09:44.859Z,10.60
2018-01-16T14:12:11.373Z,4.12
2018-01-16T14:14:37.746Z,2.35
2018-01-16T14:17:04.054Z,1.80
2018-01-16T14:19:30.325Z,1.30
2018-01-16T14:21:57.340Z,1.10
2018-01-16T14:24:23.710Z,0.90
2018-01-16T14:26:51.885Z,0.90
2018-01-16T14:29:18.874Z,0.80
2018-01-16T14:31:45.866Z,1.30
2018-01-16T14:34:13.396Z,1.00
2018-01-16T14:36:39.892Z,1.00
2018-01-16T14:39:06.456Z,1.12
2018-01-16T14:41:33.893Z,1.00
2018-01-16T14:44:01.170Z,0.60
2018-01-16T14:46:28.238Z,1.17
2018-01-16T14:48:54.581Z,3.40
2018-01-16T14:51:21.745Z,0.85
2018-01-16T14:53:49.190Z,0.60
2018-01-16T14:56:15.499Z,1.10
2018-01-16T14:58:41.874Z,0.70
2018-01-16T15:01:08.938Z,0.80
2018-01-16T15:03:35.194Z,0.80
2018-01-16T15:06:01.550Z,0.80
2018-01-16T15:08:28.333Z,0.93
2018-01-16T15:10:54.881Z,1.90
2018-01-16T15:13:22.193Z,0.90
2018-01-16T15:15:49.279Z,0.70
2018-01-16T15:18:16.025Z,1.23
2018-01-16T15:20:42.249Z,1.15
2018-01-16T15:23:08.825Z,0.90
2018-01-16T15:25:35.262Z,1.20
2018-01-16T15:28:01.908Z,1.30
2018-01-16T15:43:28.318Z,1.30
2018-01-16T15:45:54.674Z,3.08
2018-01-16T15:48:21.046Z,0.85
2018-01-16T15:50:47.290Z,0.80
2018-01-16T15:53:13.550Z,0.80
2018-01-16T15:55:40.565Z,0.95
2018-01-16T15:58:06.933Z,1.10
2018-01-16T16:00:33.900Z,1.15
2018-01-16T16:03:00.763Z,0.93
2018-01-16T16:05:27.453Z,1.05
2018-01-16T16:07:54.478Z,1.12
2018-01-16T16:10:21.522Z,3.42
2018-01-16T16:12:48.554Z,1.40
2018-01-16T16:15:14.801Z,3.47
2018-01-16T16:17:41.026Z,59.95
2018-01-16T16:20:07.267Z,8.93
2018-01-16T16:22:33.487Z,6.37
2018-01-16T16:24:59.714Z,8.35
2018-01-16T16:27:25.928Z,4.57
2018-01-16T16:29:52.651Z,3.67
2018-01-16T16:32:19.340Z,2.83
2018-01-16T16:34:46.602Z,1.73
2018-01-16T16:37:14.097Z,1.60
2018-01-16T16:39:41.235Z,2.20
2018-01-16T16:42:08.369Z,4.70
2018-01-16T16:44:36.061Z,4.75
2018-01-16T16:47:02.471Z,4.18
2018-01-16T16:49:29.522Z,4.75
2018-01-16T16:51:56.377Z,3.22
2018-01-16T16:54:23.473Z,2.55
2018-01-16T16:56:50.564Z,11.70
2018-01-16T16:59:19.051Z,8.02
2018-01-16T17:01:46.232Z,37.42
2018-01-16T17:04:13.256Z,5.45
2018-01-16T17:06:39.999Z,40.20
2018-01-16T17:09:09.695Z,7.00
2018-01-16T17:11:36.197Z,3.90
2018-01-16T17:14:03.178Z,11.85
2018-01-16T17:16:29.877Z,4.30
2018-01-16T17:18:56.960Z,8.52
2018-01-16T17:21:23.195Z,8.68
2018-01-16T17:23:49.967Z,4.90
2018-01-16T17:26:16.987Z,4.28
2018-01-16T17:28:43.880Z,5.20
2018-01-16T17:31:11.368Z,3.42
2018-01-16T17:33:38.704Z,4.25
2018-01-16T17:36:06.037Z,3.17
2018-01-16T17:38:33.517Z,3.40
2018-01-16T17:41:00.918Z,3.00
2018-01-16T17:43:28.043Z,3.42
2018-01-16T17:45:54.261Z,2.42
2018-01-16T17:48:21.645Z,3.15
2018-01-16T17:50:48.127Z,4.28
2018-01-16T17:53:16.526Z,5.47
2018-01-16T17:55:42.819Z,4.57
2018-01-16T17:58:09.686Z,7.18
2018-01-16T18:00:36.800Z,4.90
2018-01-16T18:03:03.322Z,6.25
2018-01-16T18:05:30.924Z,3.50
2018-01-16T18:07:58.006Z,2.47
2018-01-16T18:10:25.527Z,3.55
2018-01-16T18:12:52.498Z,4.32
2018-01-16T18:15:18.997Z,4.65
2018-01-16T18:17:46.579Z,2.95
2018-01-16T18:20:13.014Z,4.18
2018-01-16T18:22:40.068Z,4.65
2018-01-16T18:25:06.470Z,4.47
2018-01-16T18:27:34.064Z,4.72
2018-01-16T18:30:00.654Z,3.33
2018-01-16T18:32:27.988Z,3.80
2018-01-16T18:34:55.184Z,7.90
2018-01-16T18:37:21.406Z,6.82
2018-01-16T18:39:48.775Z,9.52
2018-01-16T18:42:15.925Z,54.15
2018-01-16T18:44:42.808Z,11.82
2018-01-16T18:47:10.352Z,11.15
2018-01-16T18:49:37.844Z,11.98
2018-01-16T18:52:05.436Z,7.30
2018-01-16T18:54:32.508Z,7.18
2018-01-16T18:57:00.169Z,11.23
2018-01-16T18:59:26.659Z,8.20
2018-01-16T19:01:54.023Z,8.95
2018-01-16T19:04:21.554Z,13.95
2018-01-16T19:06:47.881Z,10.23
2018-01-16T19:09:14.402Z,12.70
2018-01-16T19:11:41.585Z,12.65
2018-01-16T19:14:07.893Z,8.80
2018-01-16T19:16:34.345Z,8.00
2018-01-16T19:19:00.790Z,6.50
2018-01-16T19:21:27.886Z,6.78
2018-01-16T19:23:54.785Z,6.53
2018-01-16T19:26:23.293Z,4.30
2018-01-16T19:28:50.287Z,4.22
2018-01-16T19:31:17.056Z,4.40
2018-01-16T19:33:44.182Z,22.50
2018-01-16T19:36:10.614Z,13.30
2018-01-16T19:38:37.825Z,9.23
2018-01-16T19:41:04.727Z,8.10
2018-01-16T19:43:33.270Z,10.85
2018-01-16T19:46:00.022Z,10.02
2018-01-16T19:48:27.558Z,8.65
2018-01-16T19:50:54.137Z,9.13
2018-01-16T19:53:21.520Z,11.82
2018-01-16T19:55:48.113Z,7.60
2018-01-16T19:58:14.913Z,6.93
2018-01-16T20:00:41.627Z,9.05
2018-01-16T20:03:08.066Z,14.63
2018-01-16T20:05:34.642Z,10.93
2018-01-16T20:08:01.568Z,18.00
2018-01-16T20:10:30.618Z,11.10
2018-01-16T20:12:57.676Z,10.18
2018-01-16T20:15:24.224Z,14.27
2018-01-16T20:17:50.672Z,11.25
2018-01-16T20:20:17.151Z,15.50
2018-01-16T20:22:45.425Z,10.48
2018-01-16T20:25:12.800Z,8.90
2018-01-16T20:27:40.752Z,21.35
2018-01-16T20:30:08.827Z,21.80
2018-01-16T20:32:35.974Z,13.35
2018-01-16T20:35:02.432Z,12.05
2018-01-16T20:37:29.781Z,12.15
2018-01-16T20:39:56.527Z,11.20
2018-01-16T20:42:23.866Z,13.10
2018-01-16T20:44:51.488Z,12.32
2018-01-16T20:47:18.645Z,18.75
2018-01-16T20:49:45.184Z,29.02
2018-01-16T20:52:12.672Z,15.30
2018-01-16T20:54:40.445Z,15.45
2018-01-16T20:57:06.829Z,18.23
2018-01-16T20:59:33.791Z,9.30
2018-01-16T21:02:00.275Z,12.18
2018-01-16T21:04:27.658Z,12.68
2018-01-16T21:06:54.183Z,12.23
2018-01-16T21:09:20.815Z,21.23
2018-01-16T21:11:48.268Z,25.88
2018-01-16T21:14:16.106Z,24.80
2018-01-16T21:16:42.524Z,28.95
2018-01-16T21:19:09.618Z,25.65
2018-01-16T21:21:36.169Z,28.77
2018-01-16T21:24:03.986Z,24.20
2018-01-16T21:26:31.431Z,26.85
2018-01-16T21:28:59.459Z,19.27
2018-01-16T21:31:27.185Z,34.65
2018-01-16T21:33:53.576Z,21.55
2018-01-16T21:36:20.585Z,15.70
2018-01-16T21:38:47.256Z,19.30
2018-01-16T21:41:14.375Z,16.60
2018-01-16T21:43:41.076Z,16.65
2018-01-16T21:46:09.142Z,15.60
2018-01-16T21:48:37.175Z,20.00
2018-01-16T21:51:04.180Z,18.55
2018-01-16T21:53:30.442Z,15.32
2018-01-16T21:55:57.160Z,8.10
2018-01-16T21:58:25.227Z,14.10
2018-01-16T22:00:51.960Z,14.27
2018-01-16T22:03:18.283Z,8.90
2018-01-16T22:05:44.754Z,7.43
2018-01-16T22:08:11.494Z,10.05
2018-01-16T22:10:45.957Z,12.18
2018-01-16T22:13:13.207Z,2.78
2018-01-16T22:15:40.175Z,8.65
2018-01-16T22:18:06.539Z,7.10
2018-01-16T22:20:34.137Z,4.60
2018-01-16T22:23:00.511Z,2.75
2018-01-16T22:25:26.862Z,1.90
2018-01-16T22:27:53.087Z,2.90
2018-01-16T22:30:19.306Z,2.17
2018-01-16T22:32:46.065Z,2.55
2018-01-16T22:35:13.332Z,2.62
2018-01-16T22:37:40.349Z,3.95
2018-01-16T22:40:06.594Z,4.45
2018-01-16T22:42:33.184Z,3.45
2018-01-16T22:45:00.492Z,2.83
2018-01-16T22:47:27.323Z,2.10
2018-01-16T22:49:53.960Z,1.92
2018-01-16T22:52:21.185Z,1.95
2018-01-16T22:54:48.833Z,1.55
2018-01-16T22:57:15.881Z,1.23
2018-01-16T22:59:42.100Z,1.45
2018-01-16T23:02:08.326Z,1.20
2018-01-16T23:04:34.615Z,1.05
2018-01-16T23:07:00.846Z,0.80
2018-01-16T23:09:27.339Z,0.75
2018-01-16T23:11:54.408Z,1.92
2018-01-16T23:14:21.341Z,0.95
2018-01-16T23:16:48.922Z,0.70
2018-01-16T23:19:15.442Z,0.80
2018-01-16T23:21:42.459Z,0.90
2018-01-16T23:24:09.033Z,2.25
2018-01-16T23:26:36.176Z,2.58
2018-01-16T23:29:03.224Z,1.40
2018-01-16T23:31:29.506Z,1.95
2018-01-16T23:33:57.064Z,1.87
2018-01-16T23:36:24.581Z,1.80
2018-01-16T23:38:51.018Z,1.52
2018-01-16T23:41:18.203Z,2.25
2018-01-16T23:43:45.149Z,0.80
2018-01-16T23:46:12.360Z,1.90
2018-01-16T23:48:38.710Z,0.70
2018-01-16T23:51:04.928Z,1.75
2018-01-16T23:53:31.460Z,1.62
2018-01-16T23:55:58.216Z,1.30
2018-01-16T23:58:24.798Z,1.10
